Time;durP1;ratioP1;P1;durP2;ratioP2;P2;SDS_P1;SDS_P2;PMS_P1;PMS_P2;Temp;Humidity;BMP_temperature;BMP_pressure;BME280_temperature;BME280_humidity;BME280_pressure;Samples;Min_cycle;Max_cycle;Signal;HPM_P1;HPM_P2
2023/07/14 00:00:15;;;;;;;2.80;2.00;;;22.80;61.90;;;;;;5069720;28;20225;-73
2023/07/14 00:02:44;;;;;;;2.20;1.77;;;22.80;61.90;;;;;;5061806;28;20203;-73
2023/07/14 00:05:17;;;;;;;2.17;1.90;;;22.70;61.80;;;;;;5070311;28;20200;-73
2023/07/14 00:07:45;;;;;;;2.50;1.77;;;22.70;61.90;;;;;;5069670;28;20224;-72
2023/07/14 00:10:18;;;;;;;2.40;2.10;;;22.70;62.00;;;;;;5069509;28;20677;-73
2023/07/14 00:12:45;;;;;;;2.53;1.60;;;22.70;62.40;;;;;;5069919;28;20199;-73
2023/07/14 00:15:13;;;;;;;3.63;1.90;;;22.60;61.70;;;;;;5069827;28;20315;-73
2023/07/14 00:17:41;;;;;;;2.67;1.70;;;22.60;62.20;;;;;;5069365;28;20201;-73
2023/07/14 00:20:27;;;;;;;2.40;2.03;;;22.50;62.20;;;;;;5068693;28;20193;-73
2023/07/14 00:22:55;;;;;;;4.33;1.93;;;22.50;62.90;;;;;;5060920;28;20237;-73
2023/07/14 00:25:24;;;;;;;4.37;1.77;;;22.50;62.30;;;;;;5076717;28;20578;-73
2023/07/14 00:27:51;;;;;;;2.60;2.30;;;22.50;62.30;;;;;;5077129;28;20201;-73
2023/07/14 00:30:20;;;;;;;2.70;1.97;;;22.50;62.40;;;;;;5073700;28;20204;-73
2023/07/14 00:32:49;;;;;;;3.83;2.07;;;22.50;62.50;;;;;;5073911;28;20304;-73
2023/07/14 00:35:21;;;;;;;3.37;1.57;;;22.50;62.70;;;;;;5073931;28;20227;-73
2023/07/14 00:37:49;;;;;;;4.10;2.10;;;22.40;62.60;;;;;;5073882;28;20212;-73
2023/07/14 00:40:18;;;;;;;4.90;1.90;;;22.40;62.60;;;;;;5068914;28;20834;-72
2023/07/14 00:42:47;;;;;;;3.47;1.80;;;22.30;62.70;;;;;;5059261;28;20212;-71
2023/07/14 00:45:22;;;;;;;3.43;1.77;;;22.30;62.90;;;;;;5069649;28;20755;-72
2023/07/14 00:47:54;;;;;;;5.07;2.00;;;22.20;63.10;;;;;;5072770;28;20207;-71
2023/07/14 00:50:30;;;;;;;2.40;1.80;;;22.30;63.20;;;;;;5058624;28;20196;-71
2023/07/14 00:52:59;;;;;;;2.17;1.80;;;22.20;63.50;;;;;;5073418;28;20235;-72
2023/07/14 00:55:36;;;;;;;2.73;1.80;;;22.20;63.40;;;;;;5073187;28;20228;-72
2023/07/14 00:58:05;;;;;;;3.97;1.97;;;22.20;64.40;;;;;;5073111;28;20201;-71
2023/07/14 01:00:32;;;;;;;2.70;1.87;;;22.20;63.30;;;;;;5072413;28;20339;-71
2023/07/14 01:03:03;;;;;;;2.83;1.80;;;22.20;63.30;;;;;;5073532;28;20759;-72
2023/07/14 01:05:31;;;;;;;3.37;1.90;;;22.10;63.60;;;;;;5073164;28;20189;-71
2023/07/14 01:07:58;;;;;;;2.00;1.80;;;22.10;63.60;;;;;;5073222;28;20558;-71
2023/07/14 01:10:28;;;;;;;1.80;1.60;;;22.10;63.80;;;;;;5072784;28;20197;-71
2023/07/14 01:13:06;;;;;;;2.90;2.00;;;22.10;64.10;;;;;;5069969;28;20193;-71
2023/07/14 01:15:34;;;;;;;3.73;1.70;;;22.10;63.80;;;;;;5063319;28;20300;-71
2023/07/14 01:18:02;;;;;;;2.10;1.90;;;22.00;63.60;;;;;;5072260;28;20910;-72
2023/07/14 01:20:30;;;;;;;2.73;1.73;;;22.00;64.00;;;;;;5071488;28;20223;-72
2023/07/14 01:23:10;;;;;;;3.27;1.93;;;22.00;64.10;;;;;;5072387;28;20617;-72
2023/07/14 01:25:50;;;;;;;3.93;2.33;;;22.00;64.20;;;;;;5073047;28;20221;-72
2023/07/14 01:28:19;;;;;;;2.40;2.10;;;21.90;64.20;;;;;;5065949;28;20570;-71
2023/07/14 01:30:46;;;;;;;2.83;1.90;;;21.90;64.10;;;;;;5060440;28;20661;-71
2023/07/14 01:33:17;;;;;;;2.47;1.70;;;21.90;64.10;;;;;;5072130;28;20197;-71
2023/07/14 01:35:49;;;;;;;1.90;1.50;;;21.80;64.20;;;;;;5071888;28;20591;-71
2023/07/14 01:38:17;;;;;;;6.73;2.10;;;21.80;64.50;;;;;;5072866;28;20189;-72
2023/07/14 01:40:45;;;;;;;4.23;1.90;;;21.80;64.30;;;;;;5072674;28;20209;-73
2023/07/14 01:43:13;;;;;;;2.13;1.97;;;21.70;64.40;;;;;;5072092;28;20276;-72
2023/07/14 01:45:46;;;;;;;3.07;2.00;;;21.70;64.70;;;;;;5072541;28;20555;-71
2023/07/14 01:48:16;;;;;;;2.00;1.73;;;21.60;64.90;;;;;;5072458;28;20583;-72
2023/07/14 01:50:48;;;;;;;1.97;1.77;;;21.60;65.00;;;;;;5072137;28;20201;-71
2023/07/14 01:53:20;;;;;;;3.03;2.17;;;21.60;65.00;;;;;;5072144;28;20212;-72
2023/07/14 01:55:48;;;;;;;3.73;1.60;;;21.50;64.90;;;;;;5055855;28;20209;-71
2023/07/14 01:58:19;;;;;;;3.63;1.80;;;21.50;64.80;;;;;;5071847;28;20634;-71
2023/07/14 02:00:49;;;;;;;8.60;2.50;;;21.40;64.80;;;;;;5072132;28;20189;-72
2023/07/14 02:03:19;;;;;;;2.40;2.13;;;21.40;65.00;;;;;;5072023;28;20262;-72
2023/07/14 02:05:47;;;;;;;3.37;1.87;;;21.40;65.00;;;;;;5072070;28;20514;-72
2023/07/14 02:08:23;;;;;;;2.33;1.97;;;21.40;64.80;;;;;;5071912;28;20209;-72
2023/07/14 02:10:50;;;;;;;2.60;2.23;;;21.30;65.20;;;;;;5072058;28;20220;-72
2023/07/14 02:13:17;;;;;;;3.93;2.27;;;21.30;65.90;;;;;;5072000;28;20300;-72
2023/07/14 02:15:44;;;;;;;4.93;2.33;;;21.30;65.00;;;;;;5071472;28;20582;-71
2023/07/14 02:18:16;;;;;;;2.53;1.90;;;21.30;65.20;;;;;;5071577;28;20205;-71
2023/07/14 02:20:47;;;;;;;2.57;2.10;;;21.30;65.30;;;;;;5071645;28;20185;-71
2023/07/14 02:23:16;;;;;;;2.53;2.10;;;21.20;65.10;;;;;;5071613;28;20255;-71
2023/07/14 02:25:46;;;;;;;2.33;1.90;;;21.20;65.30;;;;;;5071755;28;20810;-72
2023/07/14 02:28:14;;;;;;;2.70;2.07;;;21.20;65.30;;;;;;5071018;28;20204;-72
2023/07/14 02:30:46;;;;;;;4.40;2.13;;;21.20;65.10;;;;;;5071626;28;20217;-72
2023/07/14 02:33:20;;;;;;;3.00;1.90;;;21.10;65.10;;;;;;5055911;28;20185;-72
2023/07/14 02:35:57;;;;;;;4.27;1.80;;;21.10;65.20;;;;;;5071358;28;20212;-72
2023/07/14 02:38:25;;;;;;;1.80;1.70;;;21.10;65.30;;;;;;5071683;28;20189;-72
2023/07/14 02:40:55;;;;;;;5.00;2.23;;;21.10;65.20;;;;;;5071032;28;20201;-71
2023/07/14 02:43:24;;;;;;;3.83;2.10;;;21.00;65.30;;;;;;5058715;28;20206;-71
2023/07/14 02:45:55;;;;;;;3.03;1.90;;;21.00;65.40;;;;;;5070566;28;20205;-71
2023/07/14 02:48:29;;;;;;;3.80;2.23;;;21.00;65.70;;;;;;5071070;28;20225;-71
2023/07/14 02:50:56;;;;;;;2.73;1.70;;;20.90;65.80;;;;;;5057836;28;20291;-71
2023/07/14 02:53:23;;;;;;;2.33;2.10;;;20.90;65.90;;;;;;5071493;28;20197;-71
2023/07/14 02:55:50;;;;;;;3.00;2.10;;;21.00;66.00;;;;;;5070657;28;20227;-71
2023/07/14 02:58:18;;;;;;;2.70;1.80;;;20.90;66.00;;;;;;5070806;28;20201;-71
2023/07/14 03:00:45;;;;;;;2.70;1.70;;;20.80;65.50;;;;;;5070803;28;20623;-72
2023/07/14 03:03:12;;;;;;;1.97;1.70;;;20.80;65.70;;;;;;5070345;28;20197;-71
2023/07/14 03:05:40;;;;;;;3.43;1.90;;;20.80;65.40;;;;;;5070473;28;20198;-71
2023/07/14 03:08:14;;;;;;;2.13;1.90;;;20.80;65.50;;;;;;5070952;28;20245;-71
2023/07/14 03:10:41;;;;;;;2.20;1.80;;;20.80;65.70;;;;;;5055240;28;20544;-71
2023/07/14 03:13:08;;;;;;;3.50;2.03;;;20.70;65.50;;;;;;5070740;28;20193;-72
2023/07/14 03:15:35;;;;;;;2.00;1.80;;;20.70;65.70;;;;;;5069585;28;20221;-71
2023/07/14 03:18:02;;;;;;;2.97;2.13;;;20.70;65.90;;;;;;5070686;28;20198;-71
2023/07/14 03:20:29;;;;;;;1.90;1.80;;;20.70;66.10;;;;;;5069904;28;20262;-72
2023/07/14 03:22:57;;;;;;;1.73;1.63;;;20.70;66.20;;;;;;5070750;28;20192;-71
2023/07/14 03:25:24;;;;;;;1.87;1.77;;;20.70;66.30;;;;;;5070029;28;20817;-72
2023/07/14 03:27:51;;;;;;;3.67;2.27;;;20.70;66.20;;;;;;5070345;28;20296;-71
2023/07/14 03:30:19;;;;;;;2.10;1.80;;;20.70;66.10;;;;;;5069606;28;20211;-71
2023/07/14 03:32:46;;;;;;;3.83;2.00;;;20.60;66.10;;;;;;5070050;28;20220;-71
2023/07/14 03:35:13;;;;;;;2.13;1.90;;;20.60;66.00;;;;;;5069582;28;20260;-71
2023/07/14 03:37:41;;;;;;;3.30;2.13;;;20.60;66.00;;;;;;5070056;28;20205;-71
2023/07/14 03:40:10;;;;;;;2.60;2.07;;;20.60;65.90;;;;;;5069747;28;20624;-72
2023/07/14 03:42:38;;;;;;;2.17;1.90;;;20.60;66.40;;;;;;5068874;28;20304;-71
2023/07/14 03:45:06;;;;;;;4.40;2.00;;;20.60;66.30;;;;;;5069749;28;20198;-71
2023/07/14 03:47:36;;;;;;;4.07;2.20;;;20.60;66.70;;;;;;5070450;28;20205;-72
2023/07/14 03:50:03;;;;;;;2.43;1.90;;;20.60;66.80;;;;;;5070203;28;20216;-72
2023/07/14 03:52:30;;;;;;;2.30;1.97;;;20.60;66.90;;;;;;5070282;28;20217;-71
2023/07/14 03:54:57;;;;;;;3.00;2.07;;;20.50;66.90;;;;;;5069618;28;21016;-72
2023/07/14 03:57:25;;;;;;;2.30;1.87;;;20.50;66.90;;;;;;5069412;28;20292;-71
2023/07/14 03:59:52;;;;;;;2.30;1.90;;;20.50;67.10;;;;;;5069645;28;20243;-71
2023/07/14 04:02:19;;;;;;;3.40;1.97;;;20.50;67.10;;;;;;5068502;28;20243;-72
2023/07/14 04:04:46;;;;;;;5.03;2.07;;;20.50;67.00;;;;;;5069495;28;20710;-71
2023/07/14 04:07:13;;;;;;;3.30;2.00;;;20.60;67.30;;;;;;5069746;28;20228;-71
2023/07/14 04:09:40;;;;;;;2.80;2.00;;;20.60;67.20;;;;;;5069607;28;20621;-72
2023/07/14 04:12:08;;;;;;;2.37;2.13;;;20.50;67.00;;;;;;5069371;28;20231;-71
2023/07/14 04:14:36;;;;;;;2.30;2.10;;;20.60;67.10;;;;;;5069743;28;20270;-71
2023/07/14 04:17:03;;;;;;;2.97;1.73;;;20.70;67.20;;;;;;5069643;28;20205;-72
2023/07/14 04:19:30;;;;;;;2.97;2.10;;;20.70;67.60;;;;;;5069287;28;20288;-72
2023/07/14 04:21:58;;;;;;;3.00;2.00;;;20.70;67.90;;;;;;5069471;28;20201;-71
2023/07/14 04:24:24;;;;;;;3.40;2.30;;;20.70;68.10;;;;;;5068591;28;20224;-71
2023/07/14 04:26:51;;;;;;;3.47;1.93;;;20.70;68.00;;;;;;5069328;28;20197;-71
2023/07/14 04:29:18;;;;;;;3.23;2.03;;;20.70;67.90;;;;;;5069565;28;20287;-71
2023/07/14 04:31:47;;;;;;;8.67;3.13;;;20.70;68.20;;;;;;5069209;28;20245;-72
2023/07/14 04:34:14;;;;;;;5.97;2.50;;;20.70;68.70;;;;;;5069717;28;20236;-72
2023/07/14 04:36:41;;;;;;;6.93;3.60;;;20.70;68.80;;;;;;5068300;28;20692;-71
2023/07/14 04:39:13;;;;;;;6.47;2.67;;;20.70;69.00;;;;;;5069408;28;20280;-71
2023/07/14 04:41:40;;;;;;;3.37;2.33;;;20.70;69.00;;;;;;5069157;28;20859;-71
2023/07/14 04:44:09;;;;;;;4.63;2.27;;;20.70;69.30;;;;;;5065682;28;20201;-71
2023/07/14 04:46:37;;;;;;;2.40;2.00;;;20.80;69.80;;;;;;5070118;28;20215;-72
2023/07/14 04:49:05;;;;;;;4.37;2.10;;;20.80;70.10;;;;;;5069715;28;20209;-71
2023/07/14 04:51:32;;;;;;;3.87;2.10;;;20.90;70.40;;;;;;5069906;28;20204;-71
2023/07/14 04:54:01;;;;;;;4.00;2.30;;;20.90;70.20;;;;;;5070164;28;20208;-72
2023/07/14 04:56:28;;;;;;;5.90;3.03;;;20.90;70.20;;;;;;5069942;28;20659;-72
2023/07/14 04:58:55;;;;;;;5.53;2.97;;;21.00;70.30;;;;;;5069917;28;20319;-71
2023/07/14 05:01:22;;;;;;;4.10;2.10;;;21.10;70.40;;;;;;5069670;28;20221;-71
2023/07/14 05:03:49;;;;;;;7.97;2.47;;;21.10;69.90;;;;;;5070235;28;20285;-71
2023/07/14 05:06:17;;;;;;;5.40;2.40;;;21.10;68.90;;;;;;5069598;28;20304;-71
2023/07/14 05:08:44;;;;;;;12.20;4.37;;;21.20;68.60;;;;;;5069701;28;20201;-71
2023/07/14 05:11:11;;;;;;;11.30;4.27;;;21.30;69.70;;;;;;5068889;28;20638;-71
2023/07/14 05:13:37;;;;;;;9.40;4.03;;;21.30;69.40;;;;;;5069997;28;20370;-71
2023/07/14 05:16:05;;;;;;;9.37;3.47;;;21.40;69.80;;;;;;5073189;28;20219;-71
2023/07/14 05:18:32;;;;;;;7.73;3.60;;;21.40;70.70;;;;;;5072595;28;20201;-72
2023/07/14 05:20:59;;;;;;;6.27;3.10;;;21.40;70.60;;;;;;5073249;28;20695;-71
2023/07/14 05:23:29;;;;;;;3.97;2.70;;;21.40;71.00;;;;;;5073264;28;20205;-71
2023/07/14 05:25:56;;;;;;;5.60;2.27;;;21.40;70.70;;;;;;5073527;28;20231;-71
2023/07/14 05:28:24;;;;;;;3.87;2.57;;;21.50;70.50;;;;;;5068527;28;20224;-71
2023/07/14 05:30:51;;;;;;;2.53;1.90;;;21.50;70.10;;;;;;5058479;28;20303;-71
2023/07/14 05:33:18;;;;;;;2.87;2.30;;;21.50;70.20;;;;;;5073250;28;20208;-71
2023/07/14 05:35:45;;;;;;;2.70;1.97;;;21.60;69.80;;;;;;5073002;28;20792;-72
2023/07/14 05:38:12;;;;;;;3.40;2.30;;;21.60;69.70;;;;;;5072844;28;20582;-72
2023/07/14 05:40:40;;;;;;;4.57;2.80;;;21.70;69.60;;;;;;5071988;28;20674;-72
2023/07/14 05:43:07;;;;;;;2.57;1.90;;;21.70;69.30;;;;;;5063118;28;20206;-72
2023/07/14 05:45:34;;;;;;;3.13;1.90;;;21.80;69.10;;;;;;5069726;28;20193;-72
2023/07/14 05:48:02;;;;;;;5.73;2.40;;;21.90;69.10;;;;;;5073731;28;20735;-72
2023/07/14 05:50:28;;;;;;;2.90;2.40;;;21.90;69.30;;;;;;5073975;28;20217;-72
2023/07/14 05:52:55;;;;;;;4.03;2.37;;;21.90;69.70;;;;;;5073740;28;20619;-72
2023/07/14 05:55:22;;;;;;;2.93;1.97;;;22.00;70.10;;;;;;5073262;28;20236;-72
2023/07/14 05:57:50;;;;;;;3.13;2.10;;;22.00;68.80;;;;;;5074034;28;20211;-72
2023/07/14 06:00:18;;;;;;;3.13;2.30;;;22.10;68.90;;;;;;5073535;28;20229;-72
2023/07/14 06:02:47;;;;;;;4.03;2.53;;;22.20;69.40;;;;;;5073442;28;20193;-71
2023/07/14 06:05:15;;;;;;;5.27;2.23;;;22.20;69.30;;;;;;5061558;28;20236;-72
2023/07/14 06:07:42;;;;;;;3.77;2.27;;;22.30;68.90;;;;;;5073428;28;20221;-72
2023/07/14 06:10:10;;;;;;;6.13;2.10;;;22.30;67.90;;;;;;5072478;28;20197;-72
2023/07/14 06:12:37;;;;;;;2.33;1.90;;;22.40;67.60;;;;;;5073333;28;20205;-71
2023/07/14 06:15:07;;;;;;;3.93;2.20;;;22.50;67.20;;;;;;5072782;28;20236;-72
2023/07/14 06:17:34;;;;;;;4.30;2.30;;;22.60;67.90;;;;;;5073478;28;20208;-72
2023/07/14 06:20:01;;;;;;;3.17;2.30;;;22.60;67.70;;;;;;5073003;28;20591;-72
2023/07/14 06:22:28;;;;;;;5.53;2.17;;;22.70;67.20;;;;;;5073316;28;20279;-72
2023/07/14 06:24:55;;;;;;;4.60;2.10;;;22.90;66.80;;;;;;5073227;28;20203;-72
2023/07/14 06:27:23;;;;;;;4.83;2.60;;;22.90;66.40;;;;;;5073124;28;20299;-72
2023/07/14 06:29:50;;;;;;;4.17;1.80;;;22.90;66.60;;;;;;5073209;28;20233;-72
2023/07/14 06:32:18;;;;;;;2.27;1.73;;;23.00;66.60;;;;;;5073018;28;20584;-72
2023/07/14 06:34:46;;;;;;;2.60;2.00;;;23.00;66.00;;;;;;5068066;28;20252;-72
2023/07/14 06:37:13;;;;;;;4.57;1.97;;;23.10;66.50;;;;;;5066396;28;20233;-72
2023/07/14 06:39:40;;;;;;;5.13;2.37;;;23.20;66.10;;;;;;5073000;28;20205;-72
2023/07/14 06:42:09;;;;;;;5.03;2.03;;;23.30;65.60;;;;;;5072728;28;20201;-72
2023/07/14 06:44:36;;;;;;;3.87;2.07;;;23.30;65.60;;;;;;5072881;28;20580;-72
2023/07/14 06:47:03;;;;;;;4.47;2.40;;;23.40;65.20;;;;;;5072343;28;20203;-72
2023/07/14 06:49:31;;;;;;;4.10;2.10;;;23.40;64.80;;;;;;5072257;28;20205;-72
2023/07/14 06:51:58;;;;;;;5.53;2.10;;;23.50;65.10;;;;;;5071876;28;20228;-72
2023/07/14 06:54:25;;;;;;;4.80;2.40;;;23.60;64.90;;;;;;5072047;28;20288;-72
2023/07/14 06:56:52;;;;;;;3.27;1.90;;;23.70;63.80;;;;;;5071757;28;20233;-73
2023/07/14 06:59:19;;;;;;;2.20;1.70;;;23.80;63.30;;;;;;5072105;28;20275;-73
2023/07/14 07:01:46;;;;;;;5.07;2.10;;;23.80;62.70;;;;;;5070853;28;20250;-73
2023/07/14 07:04:15;;;;;;;3.43;1.80;;;23.80;63.10;;;;;;5071709;28;20280;-73
2023/07/14 07:06:43;;;;;;;2.00;1.70;;;24.00;64.10;;;;;;5071601;28;20320;-73
2023/07/14 07:09:10;;;;;;;4.60;1.90;;;24.10;63.30;;;;;;5071842;28;20216;-74
2023/07/14 07:11:38;;;;;;;5.57;2.00;;;24.20;63.60;;;;;;5071552;28;20626;-73
2023/07/14 07:14:05;;;;;;;4.17;2.00;;;24.30;63.80;;;;;;5071728;28;20200;-73
2023/07/14 07:16:32;;;;;;;2.07;1.73;;;24.40;62.80;;;;;;5070746;28;20217;-73
2023/07/14 07:18:58;;;;;;;3.60;2.17;;;24.40;62.20;;;;;;5071146;28;20621;-73
2023/07/14 07:21:25;;;;;;;2.80;1.80;;;24.50;64.00;;;;;;5071260;28;20311;-73
2023/07/14 07:23:53;;;;;;;5.47;2.20;;;24.60;62.90;;;;;;5071142;28;20215;-73
2023/07/14 07:26:20;;;;;;;3.80;2.20;;;24.70;61.90;;;;;;5071499;28;20681;-73
2023/07/14 07:28:47;;;;;;;4.93;2.10;;;24.80;61.80;;;;;;5071669;28;20308;-73
2023/07/14 07:31:14;;;;;;;3.80;2.00;;;24.90;62.40;;;;;;5070876;28;20268;-73
2023/07/14 07:33:42;;;;;;;2.40;1.90;;;25.00;62.30;;;;;;5071440;28;20201;-72
2023/07/14 07:36:15;;;;;;;2.87;1.80;;;25.10;62.00;;;;;;5071436;28;20227;-71
2023/07/14 07:38:45;;;;;;;4.03;1.83;;;25.20;61.50;;;;;;5070503;28;20319;-71
2023/07/14 07:41:13;;;;;;;5.47;2.20;;;25.40;61.40;;;;;;5070633;28;20207;-72
2023/07/14 07:43:40;;;;;;;3.27;2.00;;;25.50;61.70;;;;;;5063996;28;20641;-71
2023/07/14 07:46:08;;;;;;;2.83;2.00;;;25.60;61.40;;;;;;5070086;28;20692;-72
2023/07/14 07:48:35;;;;;;;3.83;2.27;;;25.70;61.20;;;;;;5053082;28;20205;-72
2023/07/14 07:51:03;;;;;;;2.97;1.57;;;25.80;60.50;;;;;;5071123;28;20212;-72
2023/07/14 07:53:30;;;;;;;3.57;2.17;;;25.90;60.10;;;;;;5051402;28;20226;-72
2023/07/14 07:55:59;;;;;;;4.23;2.17;;;26.10;59.50;;;;;;5051046;28;20225;-72
2023/07/14 07:58:27;;;;;;;3.23;1.77;;;26.10;58.40;;;;;;5050758;28;20228;-72
2023/07/14 08:00:55;;;;;;;3.73;2.00;;;26.30;58.10;;;;;;5066759;28;20317;-72
2023/07/14 08:03:22;;;;;;;2.03;1.80;;;26.40;57.70;;;;;;5070001;28;20203;-72
2023/07/14 08:05:49;;;;;;;5.63;1.80;;;26.50;58.30;;;;;;5070577;28;20213;-72
2023/07/14 08:08:16;;;;;;;3.67;1.93;;;26.70;57.70;;;;;;5069979;28;20725;-72
2023/07/14 08:10:45;;;;;;;6.30;2.20;;;26.80;56.60;;;;;;5070227;28;20215;-72
2023/07/14 08:13:13;;;;;;;3.20;1.80;;;26.90;57.60;;;;;;5069503;28;20202;-72
2023/07/14 08:15:42;;;;;;;2.57;1.80;;;27.00;57.60;;;;;;5070619;28;20225;-72
2023/07/14 08:18:09;;;;;;;2.20;2.00;;;27.20;56.10;;;;;;5070667;28;20218;-72
2023/07/14 08:20:37;;;;;;;2.40;1.80;;;27.30;55.20;;;;;;5070317;28;20289;-72
2023/07/14 08:23:04;;;;;;;3.03;2.30;;;27.40;54.60;;;;;;5062277;28;20199;-72
2023/07/14 08:25:31;;;;;;;4.00;2.20;;;27.50;54.70;;;;;;5067946;28;20249;-72
2023/07/14 08:27:58;;;;;;;4.63;2.30;;;27.60;54.40;;;;;;5070548;28;20195;-72
2023/07/14 08:30:25;;;;;;;2.73;1.83;;;27.70;53.00;;;;;;5070341;28;20202;-72
2023/07/14 08:32:53;;;;;;;3.27;2.13;;;27.80;54.60;;;;;;5071015;28;20281;-72
2023/07/14 08:35:21;;;;;;;2.77;2.30;;;27.90;54.90;;;;;;5070573;28;20306;-72
2023/07/14 08:37:48;;;;;;;3.73;2.07;;;28.00;55.00;;;;;;5069502;28;20312;-72
2023/07/14 08:40:20;;;;;;;3.37;1.90;;;28.10;54.80;;;;;;5405230;22;20229;-72
2023/07/14 08:43:00;;;;;;;3.70;1.87;;;28.20;55.10;;;;;;5084542;28;20218;-71
2023/07/14 08:45:37;;;;;;;3.30;1.83;;;28.20;54.70;;;;;;5089725;28;20289;-72
2023/07/14 08:48:28;;;;;;;3.30;1.93;;;28.30;54.60;;;;;;5090795;28;20535;-72
2023/07/14 08:50:58;;;;;;;3.23;1.90;;;28.40;52.70;;;;;;5095188;28;20233;-72
2023/07/14 08:53:29;;;;;;;3.87;2.07;;;28.50;53.40;;;;;;5093901;28;20188;-72
2023/07/14 08:56:02;;;;;;;4.97;2.20;;;28.60;53.00;;;;;;5090577;28;20202;-72
2023/07/14 08:58:31;;;;;;;1.90;1.70;;;28.60;53.30;;;;;;5090259;28;20614;-72
2023/07/14 09:01:08;;;;;;;2.57;2.17;;;28.70;53.00;;;;;;5089636;28;20217;-72
2023/07/14 09:03:42;;;;;;;4.03;2.00;;;28.80;51.80;;;;;;5081327;28;20580;-72
2023/07/14 09:06:20;;;;;;;3.20;1.70;;;28.90;52.40;;;;;;5095266;28;20350;-72
2023/07/14 09:08:48;;;;;;;2.40;1.97;;;29.00;51.80;;;;;;5095469;28;20204;-72
2023/07/14 09:11:31;;;;;;;2.40;1.70;;;29.10;49.80;;;;;;5094898;28;20248;-72
2023/07/14 09:14:04;;;;;;;3.37;1.80;;;29.20;49.10;;;;;;5092399;28;20192;-73
2023/07/14 09:16:37;;;;;;;3.20;1.73;;;29.30;50.10;;;;;;5095135;28;20217;-72
2023/07/14 09:19:24;;;;;;;4.00;1.90;;;29.40;50.70;;;;;;5095470;28;20220;-72
2023/07/14 09:21:59;;;;;;;2.50;1.80;;;29.50;51.00;;;;;;5095417;28;20249;-72
2023/07/14 09:24:34;;;;;;;2.90;1.90;;;29.70;50.10;;;;;;5095065;28;20276;-72
2023/07/14 09:27:01;;;;;;;2.60;1.70;;;29.70;48.00;;;;;;5092843;28;20222;-72
2023/07/14 09:29:36;;;;;;;2.97;1.60;;;29.80;48.30;;;;;;5095009;28;20199;-72
2023/07/14 09:32:07;;;;;;;2.37;1.77;;;29.90;46.40;;;;;;5094673;28;20356;-72
2023/07/14 09:34:40;;;;;;;2.33;1.67;;;29.80;45.40;;;;;;5078772;28;20612;-72
2023/07/14 09:37:15;;;;;;;3.33;1.73;;;29.70;43.30;;;;;;5074314;28;20282;-72
2023/07/14 09:39:44;;;;;;;3.90;2.00;;;29.70;44.10;;;;;;5074549;28;20719;-72
2023/07/14 09:42:28;;;;;;;2.30;1.70;;;29.70;44.00;;;;;;5076973;28;20215;-72
2023/07/14 09:45:03;;;;;;;3.30;1.50;;;29.70;43.40;;;;;;5085846;28;20246;-72
2023/07/14 09:47:30;;;;;;;2.20;1.63;;;29.70;42.80;;;;;;5094742;28;20577;-72
2023/07/14 09:49:59;;;;;;;2.67;1.40;;;29.80;43.00;;;;;;5094978;28;20224;-72
2023/07/14 09:52:27;;;;;;;2.57;1.80;;;29.70;43.20;;;;;;5094779;28;20210;-72
2023/07/14 09:54:57;;;;;;;3.93;1.70;;;29.70;43.00;;;;;;5094779;28;20226;-72
2023/07/14 09:57:27;;;;;;;4.97;2.17;;;29.70;43.00;;;;;;5093904;28;20282;-71
2023/07/14 09:59:59;;;;;;;3.77;2.00;;;29.80;42.80;;;;;;5093036;28;20265;-70
2023/07/14 10:02:29;;;;;;;2.27;1.63;;;29.90;41.60;;;;;;5088384;28;20224;-72
2023/07/14 10:05:01;;;;;;;2.23;1.87;;;29.80;41.60;;;;;;5074732;28;20258;-72
2023/07/14 10:07:40;;;;;;;1.40;1.30;;;29.90;41.50;;;;;;5087559;28;20205;-72
2023/07/14 10:10:09;;;;;;;2.30;1.50;;;29.80;41.20;;;;;;5088737;28;20272;-72
2023/07/14 10:12:40;;;;;;;2.37;1.77;;;29.90;41.60;;;;;;5088573;28;20208;-72
2023/07/14 10:15:31;;;;;;;3.13;1.97;;;30.00;41.60;;;;;;5094128;28;20283;-72
2023/07/14 10:18:00;;;;;;;2.90;1.60;;;30.10;41.10;;;;;;5082353;28;20585;-72
2023/07/14 10:20:31;;;;;;;3.40;1.70;;;30.20;41.00;;;;;;5094199;28;20226;-72
2023/07/14 10:22:59;;;;;;;2.90;1.80;;;30.10;41.00;;;;;;5094440;28;20240;-72
2023/07/14 10:25:28;;;;;;;2.77;1.67;;;30.20;40.70;;;;;;5093834;28;20200;-72
2023/07/14 10:28:03;;;;;;;2.73;1.97;;;30.20;40.70;;;;;;5093637;28;20230;-72
2023/07/14 10:30:59;;;;;;;2.70;1.77;;;30.20;40.30;;;;;;5093978;28;20184;-72
2023/07/14 10:33:31;;;;;;;3.17;2.00;;;30.30;40.40;;;;;;5094133;28;20311;-72
2023/07/14 10:36:03;;;;;;;2.60;1.60;;;30.20;40.10;;;;;;5094082;28;20219;-72
2023/07/14 10:38:35;;;;;;;2.60;1.80;;;30.20;39.90;;;;;;5093454;28;20216;-72
2023/07/14 10:41:04;;;;;;;2.67;1.73;;;30.30;40.50;;;;;;5093602;28;20294;-71
2023/07/14 10:43:36;;;;;;;2.67;1.80;;;30.40;40.50;;;;;;5093868;28;20644;-72
2023/07/14 10:46:09;;;;;;;2.10;1.90;;;30.60;42.60;;;;;;5094163;28;20279;-72
2023/07/14 10:48:40;;;;;;;2.40;1.77;;;30.70;42.30;;;;;;5080047;28;20299;-72
2023/07/14 10:51:19;;;;;;;2.43;1.80;;;30.90;42.50;;;;;;5093642;28;20570;-72
2023/07/14 10:53:55;;;;;;;2.27;1.73;;;31.10;41.10;;;;;;5093556;28;20227;-72
2023/07/14 10:56:25;;;;;;;3.17;2.20;;;31.00;40.10;;;;;;5074933;28;20204;-72
2023/07/14 10:58:56;;;;;;;1.80;1.70;;;31.00;39.10;;;;;;5072837;28;20254;-72
2023/07/14 11:01:33;;;;;;;3.60;1.80;;;30.90;38.90;;;;;;5073346;28;20250;-72
2023/07/14 11:04:10;;;;;;;1.60;1.50;;;30.90;39.20;;;;;;5073101;28;20632;-72
2023/07/14 11:06:42;;;;;;;2.37;1.63;;;31.00;39.20;;;;;;5075502;28;20232;-72
2023/07/14 11:09:14;;;;;;;3.03;1.87;;;31.10;40.30;;;;;;5092122;28;20188;-72
2023/07/14 11:11:48;;;;;;;5.70;2.00;;;31.00;37.90;;;;;;5092842;28;20224;-70
2023/07/14 11:14:27;;;;;;;2.33;1.83;;;30.90;38.70;;;;;;5089101;28;20641;-73
2023/07/14 11:17:02;;;;;;;3.27;1.87;;;31.00;39.30;;;;;;5088410;28;20274;-72
2023/07/14 11:19:45;;;;;;;2.97;1.77;;;31.10;39.20;;;;;;5092823;28;20197;-71
2023/07/14 11:22:22;;;;;;;1.63;1.53;;;31.10;39.00;;;;;;5090598;28;20271;-70
2023/07/14 11:25:02;;;;;;;2.40;1.70;;;31.10;38.50;;;;;;5081088;28;20246;-70
2023/07/14 11:27:35;;;;;;;2.17;1.80;;;31.10;38.30;;;;;;5092594;28;20632;-71
2023/07/14 11:30:09;;;;;;;2.80;1.80;;;31.00;38.20;;;;;;5092019;28;20224;-72
2023/07/14 11:32:41;;;;;;;5.87;2.07;;;30.90;38.30;;;;;;5079525;28;20208;-72
2023/07/14 11:35:25;;;;;;;5.70;1.70;;;31.00;38.20;;;;;;5092842;28;20203;-72
2023/07/14 11:38:05;;;;;;;2.63;1.97;;;31.10;37.90;;;;;;5092454;28;20584;-72
2023/07/14 11:40:38;;;;;;;2.20;1.70;;;31.20;37.50;;;;;;5092341;28;20718;-71
2023/07/14 11:43:05;;;;;;;3.70;1.80;;;31.20;37.60;;;;;;5092917;28;20207;-72
2023/07/14 11:45:34;;;;;;;1.87;1.50;;;31.30;37.90;;;;;;5092571;28;20204;-72
2023/07/14 11:48:02;;;;;;;3.67;1.77;;;31.30;37.20;;;;;;5091045;28;20310;-72
2023/07/14 11:50:30;;;;;;;2.27;1.70;;;31.30;37.50;;;;;;5072142;28;20220;-73
2023/07/14 11:53:01;;;;;;;1.80;1.70;;;31.40;39.50;;;;;;5072604;28;20259;-72
2023/07/14 11:55:30;;;;;;;4.63;1.70;;;31.60;38.90;;;;;;5072254;28;20230;-70
2023/07/14 11:58:18;;;;;;;1.93;1.77;;;31.60;38.20;;;;;;5072689;28;20229;-72
2023/07/14 12:00:48;;;;;;;3.10;1.87;;;31.60;38.50;;;;;;5072066;28;20308;-72
2023/07/14 12:03:28;;;;;;;2.77;1.90;;;31.80;39.40;;;;;;5075522;28;20204;-72
2023/07/14 12:06:45;;;;;;;3.20;2.13;;;31.80;40.00;;;;;;5092355;28;20263;-72
2023/07/14 12:09:16;;;;;;;2.23;1.80;;;31.90;38.60;;;;;;5029290;28;20209;-72
2023/07/14 12:12:01;;;;;;;3.80;1.73;;;31.90;37.30;;;;;;5029413;28;20219;-72
2023/07/14 12:14:49;;;;;;;3.83;2.00;;;31.90;37.00;;;;;;5073568;28;20221;-72
2023/07/14 12:17:47;;;;;;;2.90;1.73;;;32.00;36.80;;;;;;5092109;28;20235;-72
2023/07/14 12:20:31;;;;;;;3.60;2.00;;;32.20;40.00;;;;;;5090984;28;20562;-72
2023/07/14 12:23:28;;;;;;;2.57;1.83;;;32.30;37.00;;;;;;5090759;28;20212;-73
2023/07/14 12:26:05;;;;;;;3.27;1.70;;;32.30;36.20;;;;;;5084105;28;20225;-72
2023/07/14 12:28:36;;;;;;;2.87;2.03;;;32.30;36.60;;;;;;5074138;28;20201;-71
2023/07/14 12:31:06;;;;;;;2.50;1.80;;;32.30;38.20;;;;;;5074390;28;20234;-72
2023/07/14 12:33:33;;;;;;;2.87;1.80;;;32.40;36.60;;;;;;5080301;28;20195;-72
2023/07/14 12:36:03;;;;;;;3.00;1.70;;;32.50;36.70;;;;;;5090898;28;20621;-72
2023/07/14 12:38:31;;;;;;;2.33;1.93;;;32.40;36.90;;;;;;5087180;28;20223;-72
2023/07/14 12:41:02;;;;;;;2.43;2.10;;;32.50;36.50;;;;;;5088977;28;20286;-72
2023/07/14 12:43:35;;;;;;;4.40;1.83;;;32.60;37.80;;;;;;5084986;28;20197;-72
2023/07/14 12:46:03;;;;;;;2.53;1.70;;;32.70;37.50;;;;;;5092010;28;20191;-72
2023/07/14 12:48:32;;;;;;;2.30;1.80;;;32.90;37.60;;;;;;5091682;28;20217;-72
2023/07/14 12:51:10;;;;;;;1.90;1.70;;;32.80;35.10;;;;;;5091885;28;20235;-72
2023/07/14 12:53:37;;;;;;;2.10;1.90;;;32.70;34.00;;;;;;5091577;28;20610;-72
2023/07/14 12:56:12;;;;;;;2.60;1.67;;;32.60;35.60;;;;;;5092226;28;20230;-72
2023/07/14 12:58:39;;;;;;;3.00;1.80;;;32.80;35.50;;;;;;5078365;28;20305;-72
2023/07/14 13:01:06;;;;;;;3.57;2.10;;;33.00;35.00;;;;;;5036177;28;20208;-71
2023/07/14 13:03:37;;;;;;;2.17;1.70;;;33.00;35.20;;;;;;5071472;28;20292;-70